Terminal Aerodrome Forecast
Issued by NWS

Home | Current Version | Previous Version | Graphics & Text | Print | Product List | Glossary On
Versions: 1 2 3 4 5 6 7 8 9 10 11 12 13 14 15 16 17 18 19 20 21 22 23
000
FTUS43 KGRB 222000 AAA
TAFAUW
TAF AMD
KAUW 222052Z 2221/2318 13008G14KT 3SM BR OVC011
      TEMPO 2221/2301 2SM -SN BR SCT007 OVC009
     FM230100 09009KT 2SM -SN BR SCT004 OVC008
     FM230500 08009KT 1 1/2SM -SNPL BR OVC004 WS015/10030KT
     FM230900 07009KT 1 1/2SM -RASN BR OVC004 WS015/10035KT
     FM231400 06009KT 1 1/2SM -SN OVC006=

USA.gov is the U.S. government's official web portal to all federal, state and local government web resources and services.